sensor_id;sensor_type;location;lat;lon;timestamp;P1;durP1;ratioP1;P2;durP2;ratioP2
32874;SDS011;40468;42.128;24.750;2022-12-18T00:00:17;69.63;;;31.73;;
32874;SDS011;40468;42.128;24.750;2022-12-18T00:01:49;65.32;;;32.30;;
32874;SDS011;40468;42.128;24.750;2022-12-18T00:03:19;65.07;;;31.85;;
32874;SDS011;40468;42.128;24.750;2022-12-18T00:04:51;66.05;;;32.03;;
32874;SDS011;40468;42.128;24.750;2022-12-18T00:06:24;67.10;;;33.35;;
32874;SDS011;40468;42.128;24.750;2022-12-18T00:07:57;61.83;;;31.63;;
32874;SDS011;40468;42.128;24.750;2022-12-18T00:09:31;61.63;;;31.08;;
32874;SDS011;40468;42.128;24.750;2022-12-18T00:12:34;61.53;;;29.83;;
32874;SDS011;40468;42.128;24.750;2022-12-18T00:14:06;67.90;;;32.25;;
32874;SDS011;40468;42.128;24.750;2022-12-18T00:17:11;60.60;;;29.83;;
32874;SDS011;40468;42.128;24.750;2022-12-18T00:18:43;63.33;;;31.17;;
32874;SDS011;40468;42.128;24.750;2022-12-18T00:20:15;66.43;;;32.03;;
32874;SDS011;40468;42.128;24.750;2022-12-18T00:21:51;64.57;;;31.40;;
32874;SDS011;40468;42.128;24.750;2022-12-18T00:23:23;60.33;;;30.30;;
32874;SDS011;40468;42.128;24.750;2022-12-18T00:24:56;66.35;;;31.45;;
32874;SDS011;40468;42.128;24.750;2022-12-18T00:27:59;63.13;;;31.75;;
32874;SDS011;40468;42.128;24.750;2022-12-18T00:29:31;68.13;;;32.67;;
32874;SDS011;40468;42.128;24.750;2022-12-18T00:31:03;63.63;;;32.75;;
32874;SDS011;40468;42.128;24.750;2022-12-18T00:32:37;65.53;;;31.90;;
32874;SDS011;40468;42.128;24.750;2022-12-18T00:34:09;67.43;;;32.20;;
32874;SDS011;40468;42.128;24.750;2022-12-18T00:35:42;68.32;;;32.45;;
32874;SDS011;40468;42.128;24.750;2022-12-18T00:37:14;64.93;;;31.55;;
32874;SDS011;40468;42.128;24.750;2022-12-18T00:38:46;60.47;;;31.20;;
32874;SDS011;40468;42.128;24.750;2022-12-18T00:40:19;63.78;;;31.02;;
32874;SDS011;40468;42.128;24.750;2022-12-18T00:41:50;58.40;;;30.02;;
32874;SDS011;40468;42.128;24.750;2022-12-18T00:43:40;62.35;;;31.65;;
32874;SDS011;40468;42.128;24.750;2022-12-18T00:45:11;65.07;;;32.22;;
32874;SDS011;40468;42.128;24.750;2022-12-18T00:46:43;59.78;;;30.00;;
32874;SDS011;40468;42.128;24.750;2022-12-18T00:48:14;71.80;;;31.55;;
32874;SDS011;40468;42.128;24.750;2022-12-18T00:49:46;65.25;;;32.15;;
32874;SDS011;40468;42.128;24.750;2022-12-18T00:51:17;62.40;;;30.95;;
32874;SDS011;40468;42.128;24.750;2022-12-18T00:52:49;62.88;;;29.77;;
32874;SDS011;40468;42.128;24.750;2022-12-18T00:54:21;87.05;;;31.08;;
32874;SDS011;40468;42.128;24.750;2022-12-18T00:55:53;62.42;;;32.30;;
32874;SDS011;40468;42.128;24.750;2022-12-18T00:57:25;75.38;;;30.80;;
32874;SDS011;40468;42.128;24.750;2022-12-18T00:58:56;63.08;;;31.10;;
32874;SDS011;40468;42.128;24.750;2022-12-18T01:00:28;65.60;;;29.90;;
32874;SDS011;40468;42.128;24.750;2022-12-18T01:01:59;59.72;;;30.60;;
32874;SDS011;40468;42.128;24.750;2022-12-18T01:03:30;57.05;;;29.02;;
32874;SDS011;40468;42.128;24.750;2022-12-18T01:05:02;60.20;;;29.27;;
32874;SDS011;40468;42.128;24.750;2022-12-18T01:06:35;64.03;;;30.00;;
32874;SDS011;40468;42.128;24.750;2022-12-18T01:08:08;55.25;;;27.27;;
32874;SDS011;40468;42.128;24.750;2022-12-18T01:09:40;54.63;;;27.38;;
32874;SDS011;40468;42.128;24.750;2022-12-18T01:11:14;52.72;;;27.80;;
32874;SDS011;40468;42.128;24.750;2022-12-18T01:12:47;53.65;;;27.63;;
32874;SDS011;40468;42.128;24.750;2022-12-18T01:14:19;52.92;;;27.65;;
32874;SDS011;40468;42.128;24.750;2022-12-18T01:15:51;51.00;;;26.38;;
32874;SDS011;40468;42.128;24.750;2022-12-18T01:17:23;48.65;;;25.00;;
32874;SDS011;40468;42.128;24.750;2022-12-18T01:18:55;50.83;;;26.33;;
32874;SDS011;40468;42.128;24.750;2022-12-18T01:20:27;50.17;;;27.33;;
32874;SDS011;40468;42.128;24.750;2022-12-18T01:21:58;51.15;;;26.88;;
32874;SDS011;40468;42.128;24.750;2022-12-18T01:23:30;48.83;;;25.80;;
32874;SDS011;40468;42.128;24.750;2022-12-18T01:25:01;49.75;;;25.80;;
32874;SDS011;40468;42.128;24.750;2022-12-18T01:26:35;47.63;;;25.77;;
32874;SDS011;40468;42.128;24.750;2022-12-18T01:28:07;53.65;;;27.15;;
32874;SDS011;40468;42.128;24.750;2022-12-18T01:29:38;53.72;;;28.15;;
32874;SDS011;40468;42.128;24.750;2022-12-18T01:31:14;49.08;;;26.02;;
32874;SDS011;40468;42.128;24.750;2022-12-18T01:32:48;53.15;;;26.48;;
32874;SDS011;40468;42.128;24.750;2022-12-18T01:34:20;48.60;;;25.75;;
32874;SDS011;40468;42.128;24.750;2022-12-18T01:35:51;49.67;;;26.58;;
32874;SDS011;40468;42.128;24.750;2022-12-18T01:37:23;47.75;;;25.95;;
32874;SDS011;40468;42.128;24.750;2022-12-18T01:38:55;48.88;;;25.02;;
32874;SDS011;40468;42.128;24.750;2022-12-18T01:40:27;49.60;;;27.10;;
32874;SDS011;40468;42.128;24.750;2022-12-18T01:42:00;48.60;;;26.40;;
32874;SDS011;40468;42.128;24.750;2022-12-18T01:43:43;45.85;;;25.40;;
32874;SDS011;40468;42.128;24.750;2022-12-18T01:45:26;47.15;;;25.63;;
32874;SDS011;40468;42.128;24.750;2022-12-18T01:46:58;47.80;;;25.48;;
32874;SDS011;40468;42.128;24.750;2022-12-18T01:48:30;51.92;;;26.00;;
32874;SDS011;40468;42.128;24.750;2022-12-18T01:50:03;51.58;;;26.92;;
32874;SDS011;40468;42.128;24.750;2022-12-18T01:51:37;51.10;;;26.33;;
32874;SDS011;40468;42.128;24.750;2022-12-18T01:53:10;54.75;;;27.58;;
32874;SDS011;40468;42.128;24.750;2022-12-18T01:54:44;51.88;;;27.10;;
32874;SDS011;40468;42.128;24.750;2022-12-18T01:56:18;52.75;;;27.13;;
32874;SDS011;40468;42.128;24.750;2022-12-18T01:57:53;50.45;;;25.98;;
32874;SDS011;40468;42.128;24.750;2022-12-18T01:59:27;43.72;;;24.08;;
32874;SDS011;40468;42.128;24.750;2022-12-18T02:01:02;45.85;;;23.92;;
32874;SDS011;40468;42.128;24.750;2022-12-18T02:02:34;38.25;;;22.15;;
32874;SDS011;40468;42.128;24.750;2022-12-18T02:04:19;45.58;;;23.73;;
32874;SDS011;40468;42.128;24.750;2022-12-18T02:05:54;41.97;;;21.23;;
32874;SDS011;40468;42.128;24.750;2022-12-18T02:07:35;38.53;;;21.75;;
32874;SDS011;40468;42.128;24.750;2022-12-18T02:09:13;40.00;;;21.23;;
32874;SDS011;40468;42.128;24.750;2022-12-18T02:10:52;39.58;;;20.90;;
32874;SDS011;40468;42.128;24.750;2022-12-18T02:12:38;36.00;;;18.13;;
32874;SDS011;40468;42.128;24.750;2022-12-18T02:14:20;37.30;;;19.73;;
32874;SDS011;40468;42.128;24.750;2022-12-18T02:16:01;35.00;;;19.35;;
32874;SDS011;40468;42.128;24.750;2022-12-18T02:17:39;35.83;;;19.20;;
32874;SDS011;40468;42.128;24.750;2022-12-18T02:19:32;34.78;;;18.85;;
32874;SDS011;40468;42.128;24.750;2022-12-18T02:21:18;31.98;;;18.20;;
32874;SDS011;40468;42.128;24.750;2022-12-18T02:23:01;32.63;;;18.52;;
32874;SDS011;40468;42.128;24.750;2022-12-18T02:24:42;32.85;;;18.10;;
32874;SDS011;40468;42.128;24.750;2022-12-18T02:26:27;35.42;;;19.20;;
32874;SDS011;40468;42.128;24.750;2022-12-18T02:28:03;34.92;;;18.45;;
32874;SDS011;40468;42.128;24.750;2022-12-18T02:29:40;35.85;;;19.02;;
32874;SDS011;40468;42.128;24.750;2022-12-18T02:31:17;34.05;;;18.08;;
32874;SDS011;40468;42.128;24.750;2022-12-18T02:32:54;39.22;;;18.65;;
32874;SDS011;40468;42.128;24.750;2022-12-18T02:34:28;34.65;;;18.10;;
32874;SDS011;40468;42.128;24.750;2022-12-18T02:36:01;34.38;;;17.98;;
32874;SDS011;40468;42.128;24.750;2022-12-18T02:37:36;36.85;;;16.88;;
32874;SDS011;40468;42.128;24.750;2022-12-18T02:39:10;31.80;;;18.25;;
32874;SDS011;40468;42.128;24.750;2022-12-18T02:40:45;27.13;;;16.17;;
32874;SDS011;40468;42.128;24.750;2022-12-18T02:42:19;26.60;;;16.20;;
32874;SDS011;40468;42.128;24.750;2022-12-18T02:46:57;31.58;;;15.52;;
32874;SDS011;40468;42.128;24.750;2022-12-18T02:48:33;31.30;;;16.33;;
32874;SDS011;40468;42.128;24.750;2022-12-18T02:50:08;33.13;;;16.17;;
32874;SDS011;40468;42.128;24.750;2022-12-18T02:51:50;28.45;;;16.35;;
32874;SDS011;40468;42.128;24.750;2022-12-18T02:53:27;28.05;;;16.30;;
32874;SDS011;40468;42.128;24.750;2022-12-18T02:55:08;37.78;;;16.60;;
32874;SDS011;40468;42.128;24.750;2022-12-18T02:56:49;27.13;;;15.68;;
32874;SDS011;40468;42.128;24.750;2022-12-18T02:58:29;33.25;;;17.30;;
32874;SDS011;40468;42.128;24.750;2022-12-18T03:00:06;37.00;;;17.17;;
32874;SDS011;40468;42.128;24.750;2022-12-18T03:01:45;32.78;;;17.38;;
32874;SDS011;40468;42.128;24.750;2022-12-18T03:03:23;31.73;;;17.52;;
32874;SDS011;40468;42.128;24.750;2022-12-18T03:05:01;30.60;;;17.52;;
32874;SDS011;40468;42.128;24.750;2022-12-18T03:06:40;31.73;;;17.55;;
32874;SDS011;40468;42.128;24.750;2022-12-18T03:08:14;30.23;;;15.90;;
32874;SDS011;40468;42.128;24.750;2022-12-18T03:09:50;27.67;;;16.35;;
32874;SDS011;40468;42.128;24.750;2022-12-18T03:11:25;29.08;;;14.77;;
32874;SDS011;40468;42.128;24.750;2022-12-18T03:13:14;26.40;;;15.27;;
32874;SDS011;40468;42.128;24.750;2022-12-18T03:14:52;33.35;;;16.55;;
32874;SDS011;40468;42.128;24.750;2022-12-18T03:16:27;29.55;;;16.92;;
32874;SDS011;40468;42.128;24.750;2022-12-18T03:18:02;28.42;;;16.05;;
32874;SDS011;40468;42.128;24.750;2022-12-18T03:19:37;26.55;;;16.50;;
32874;SDS011;40468;42.128;24.750;2022-12-18T03:22:42;31.15;;;15.52;;
32874;SDS011;40468;42.128;24.750;2022-12-18T03:24:17;27.58;;;14.75;;
32874;SDS011;40468;42.128;24.750;2022-12-18T03:25:52;32.05;;;16.60;;
32874;SDS011;40468;42.128;24.750;2022-12-18T03:27:27;28.38;;;15.98;;
32874;SDS011;40468;42.128;24.750;2022-12-18T03:29:03;28.60;;;16.73;;
32874;SDS011;40468;42.128;24.750;2022-12-18T03:30:40;26.08;;;14.90;;
32874;SDS011;40468;42.128;24.750;2022-12-18T03:32:15;27.98;;;15.63;;
32874;SDS011;40468;42.128;24.750;2022-12-18T03:33:51;29.33;;;16.60;;
32874;SDS011;40468;42.128;24.750;2022-12-18T03:35:26;35.42;;;15.90;;
32874;SDS011;40468;42.128;24.750;2022-12-18T03:37:01;28.63;;;14.50;;
32874;SDS011;40468;42.128;24.750;2022-12-18T03:38:32;32.15;;;15.80;;
32874;SDS011;40468;42.128;24.750;2022-12-18T03:40:04;28.42;;;15.80;;
32874;SDS011;40468;42.128;24.750;2022-12-18T03:41:38;35.85;;;16.27;;
32874;SDS011;40468;42.128;24.750;2022-12-18T03:43:16;28.33;;;14.98;;
32874;SDS011;40468;42.128;24.750;2022-12-18T03:44:57;25.17;;;15.23;;
32874;SDS011;40468;42.128;24.750;2022-12-18T03:46:41;26.00;;;14.40;;
32874;SDS011;40468;42.128;24.750;2022-12-18T03:48:18;31.45;;;15.95;;
32874;SDS011;40468;42.128;24.750;2022-12-18T03:49:56;29.67;;;15.48;;
32874;SDS011;40468;42.128;24.750;2022-12-18T03:51:35;26.38;;;14.65;;
32874;SDS011;40468;42.128;24.750;2022-12-18T03:53:17;28.05;;;15.52;;
32874;SDS011;40468;42.128;24.750;2022-12-18T03:54:56;28.38;;;15.30;;
32874;SDS011;40468;42.128;24.750;2022-12-18T03:58:02;25.13;;;14.45;;
32874;SDS011;40468;42.128;24.750;2022-12-18T03:59:37;30.52;;;15.05;;
32874;SDS011;40468;42.128;24.750;2022-12-18T04:01:12;26.20;;;15.07;;
32874;SDS011;40468;42.128;24.750;2022-12-18T04:02:47;29.15;;;14.38;;
32874;SDS011;40468;42.128;24.750;2022-12-18T04:04:22;22.33;;;12.57;;
32874;SDS011;40468;42.128;24.750;2022-12-18T04:05:56;24.30;;;13.30;;
32874;SDS011;40468;42.128;24.750;2022-12-18T04:09:02;26.05;;;11.95;;
32874;SDS011;40468;42.128;24.750;2022-12-18T04:12:06;25.65;;;12.15;;
32874;SDS011;40468;42.128;24.750;2022-12-18T04:13:38;26.60;;;12.88;;
32874;SDS011;40468;42.128;24.750;2022-12-18T04:15:10;20.52;;;12.40;;
32874;SDS011;40468;42.128;24.750;2022-12-18T04:16:42;21.33;;;11.38;;
32874;SDS011;40468;42.128;24.750;2022-12-18T04:18:15;22.00;;;12.00;;
32874;SDS011;40468;42.128;24.750;2022-12-18T04:19:46;25.00;;;12.10;;
32874;SDS011;40468;42.128;24.750;2022-12-18T04:21:18;23.95;;;12.68;;
32874;SDS011;40468;42.128;24.750;2022-12-18T04:22:51;21.23;;;11.53;;
32874;SDS011;40468;42.128;24.750;2022-12-18T04:24:22;23.95;;;12.30;;
32874;SDS011;40468;42.128;24.750;2022-12-18T04:25:54;19.73;;;11.50;;
32874;SDS011;40468;42.128;24.750;2022-12-18T04:27:25;21.02;;;11.07;;
32874;SDS011;40468;42.128;24.750;2022-12-18T04:28:57;21.88;;;12.15;;
32874;SDS011;40468;42.128;24.750;2022-12-18T04:30:28;19.08;;;9.70;;
32874;SDS011;40468;42.128;24.750;2022-12-18T04:32:00;20.75;;;10.15;;
32874;SDS011;40468;42.128;24.750;2022-12-18T04:33:32;20.00;;;9.23;;
32874;SDS011;40468;42.128;24.750;2022-12-18T04:35:04;16.58;;;9.20;;
32874;SDS011;40468;42.128;24.750;2022-12-18T04:36:40;17.55;;;9.00;;
32874;SDS011;40468;42.128;24.750;2022-12-18T04:38:12;15.82;;;8.80;;
32874;SDS011;40468;42.128;24.750;2022-12-18T04:39:44;12.90;;;7.85;;
32874;SDS011;40468;42.128;24.750;2022-12-18T04:41:16;13.27;;;7.38;;
32874;SDS011;40468;42.128;24.750;2022-12-18T04:42:47;13.18;;;7.50;;
32874;SDS011;40468;42.128;24.750;2022-12-18T04:44:19;11.57;;;6.15;;
32874;SDS011;40468;42.128;24.750;2022-12-18T04:45:51;13.55;;;7.50;;
32874;SDS011;40468;42.128;24.750;2022-12-18T04:47:22;11.55;;;7.20;;
32874;SDS011;40468;42.128;24.750;2022-12-18T04:48:55;10.75;;;6.45;;
32874;SDS011;40468;42.128;24.750;2022-12-18T04:50:27;9.02;;;5.70;;
32874;SDS011;40468;42.128;24.750;2022-12-18T04:51:59;11.50;;;6.88;;
32874;SDS011;40468;42.128;24.750;2022-12-18T04:53:31;12.90;;;6.78;;
32874;SDS011;40468;42.128;24.750;2022-12-18T04:55:03;9.70;;;5.75;;
32874;SDS011;40468;42.128;24.750;2022-12-18T04:56:36;12.63;;;6.07;;
32874;SDS011;40468;42.128;24.750;2022-12-18T04:58:07;9.75;;;5.80;;
32874;SDS011;40468;42.128;24.750;2022-12-18T04:59:39;12.80;;;6.20;;
32874;SDS011;40468;42.128;24.750;2022-12-18T05:01:11;11.35;;;5.78;;
32874;SDS011;40468;42.128;24.750;2022-12-18T05:02:44;10.30;;;5.95;;
32874;SDS011;40468;42.128;24.750;2022-12-18T05:04:17;14.20;;;5.95;;
32874;SDS011;40468;42.128;24.750;2022-12-18T05:05:49;9.60;;;5.55;;
32874;SDS011;40468;42.128;24.750;2022-12-18T05:07:20;8.48;;;4.68;;
32874;SDS011;40468;42.128;24.750;2022-12-18T05:08:51;10.98;;;5.57;;
32874;SDS011;40468;42.128;24.750;2022-12-18T05:10:23;9.82;;;5.32;;
32874;SDS011;40468;42.128;24.750;2022-12-18T05:11:55;8.35;;;4.43;;
32874;SDS011;40468;42.128;24.750;2022-12-18T05:13:26;8.77;;;4.45;;
32874;SDS011;40468;42.128;24.750;2022-12-18T05:14:58;6.72;;;4.38;;
32874;SDS011;40468;42.128;24.750;2022-12-18T05:16:29;7.75;;;4.82;;
32874;SDS011;40468;42.128;24.750;2022-12-18T05:18:03;9.40;;;4.82;;
32874;SDS011;40468;42.128;24.750;2022-12-18T05:19:37;7.75;;;4.97;;
32874;SDS011;40468;42.128;24.750;2022-12-18T05:21:09;9.60;;;5.03;;
32874;SDS011;40468;42.128;24.750;2022-12-18T05:22:40;9.25;;;5.03;;
32874;SDS011;40468;42.128;24.750;2022-12-18T05:24:11;9.18;;;5.07;;
32874;SDS011;40468;42.128;24.750;2022-12-18T05:25:46;9.40;;;5.70;;
32874;SDS011;40468;42.128;24.750;2022-12-18T05:27:18;8.80;;;5.60;;
32874;SDS011;40468;42.128;24.750;2022-12-18T05:28:50;9.70;;;5.25;;
32874;SDS011;40468;42.128;24.750;2022-12-18T05:30:22;12.02;;;6.07;;
32874;SDS011;40468;42.128;24.750;2022-12-18T05:31:53;11.70;;;6.75;;
32874;SDS011;40468;42.128;24.750;2022-12-18T05:33:26;13.05;;;6.47;;
32874;SDS011;40468;42.128;24.750;2022-12-18T05:35:01;13.15;;;6.35;;
32874;SDS011;40468;42.128;24.750;2022-12-18T05:36:33;13.48;;;6.25;;
32874;SDS011;40468;42.128;24.750;2022-12-18T05:38:05;9.82;;;5.95;;
32874;SDS011;40468;42.128;24.750;2022-12-18T05:39:37;10.57;;;6.20;;
32874;SDS011;40468;42.128;24.750;2022-12-18T05:41:09;7.88;;;5.05;;
32874;SDS011;40468;42.128;24.750;2022-12-18T05:42:41;11.43;;;5.50;;
32874;SDS011;40468;42.128;24.750;2022-12-18T05:44:12;10.00;;;5.25;;
32874;SDS011;40468;42.128;24.750;2022-12-18T05:45:43;10.43;;;5.00;;
32874;SDS011;40468;42.128;24.750;2022-12-18T05:47:14;10.32;;;5.38;;
32874;SDS011;40468;42.128;24.750;2022-12-18T05:48:46;10.30;;;5.55;;
32874;SDS011;40468;42.128;24.750;2022-12-18T05:51:52;8.48;;;4.72;;
32874;SDS011;40468;42.128;24.750;2022-12-18T05:53:24;10.93;;;5.45;;
32874;SDS011;40468;42.128;24.750;2022-12-18T05:54:55;11.13;;;4.70;;
32874;SDS011;40468;42.128;24.750;2022-12-18T05:56:26;10.98;;;5.50;;
32874;SDS011;40468;42.128;24.750;2022-12-18T05:57:58;11.45;;;4.90;;
32874;SDS011;40468;42.128;24.750;2022-12-18T05:59:30;8.82;;;5.32;;
32874;SDS011;40468;42.128;24.750;2022-12-18T06:01:06;8.82;;;4.85;;
32874;SDS011;40468;42.128;24.750;2022-12-18T06:02:38;10.07;;;4.65;;
32874;SDS011;40468;42.128;24.750;2022-12-18T06:04:10;7.63;;;4.10;;
32874;SDS011;40468;42.128;24.750;2022-12-18T06:05:44;11.98;;;5.18;;
32874;SDS011;40468;42.128;24.750;2022-12-18T06:07:16;9.07;;;4.57;;
32874;SDS011;40468;42.128;24.750;2022-12-18T06:08:49;11.07;;;4.50;;
32874;SDS011;40468;42.128;24.750;2022-12-18T06:10:21;9.63;;;5.13;;
32874;SDS011;40468;42.128;24.750;2022-12-18T06:11:53;7.85;;;4.70;;
32874;SDS011;40468;42.128;24.750;2022-12-18T06:13:25;8.98;;;4.55;;
32874;SDS011;40468;42.128;24.750;2022-12-18T06:14:56;8.30;;;4.47;;
32874;SDS011;40468;42.128;24.750;2022-12-18T06:16:29;8.05;;;4.78;;
32874;SDS011;40468;42.128;24.750;2022-12-18T06:18:00;9.73;;;5.00;;
32874;SDS011;40468;42.128;24.750;2022-12-18T06:19:32;12.95;;;5.05;;
32874;SDS011;40468;42.128;24.750;2022-12-18T06:21:06;10.05;;;4.63;;
32874;SDS011;40468;42.128;24.750;2022-12-18T06:22:37;8.65;;;4.45;;
32874;SDS011;40468;42.128;24.750;2022-12-18T06:24:09;10.27;;;5.22;;
32874;SDS011;40468;42.128;24.750;2022-12-18T06:25:41;10.38;;;5.20;;
32874;SDS011;40468;42.128;24.750;2022-12-18T06:27:13;10.45;;;4.72;;
32874;SDS011;40468;42.128;24.750;2022-12-18T06:28:45;11.95;;;5.65;;
32874;SDS011;40468;42.128;24.750;2022-12-18T06:30:16;11.55;;;5.80;;
32874;SDS011;40468;42.128;24.750;2022-12-18T06:31:48;10.50;;;5.43;;
32874;SDS011;40468;42.128;24.750;2022-12-18T06:33:20;9.18;;;5.28;;
32874;SDS011;40468;42.128;24.750;2022-12-18T06:34:52;9.82;;;5.55;;
32874;SDS011;40468;42.128;24.750;2022-12-18T06:37:58;13.02;;;5.80;;
32874;SDS011;40468;42.128;24.750;2022-12-18T06:39:31;12.13;;;6.38;;
32874;SDS011;40468;42.128;24.750;2022-12-18T06:41:05;12.95;;;6.20;;
32874;SDS011;40468;42.128;24.750;2022-12-18T06:42:38;11.32;;;5.43;;
32874;SDS011;40468;42.128;24.750;2022-12-18T06:44:09;9.30;;;5.30;;
32874;SDS011;40468;42.128;24.750;2022-12-18T06:45:41;9.32;;;5.10;;
32874;SDS011;40468;42.128;24.750;2022-12-18T06:47:12;10.07;;;5.60;;
32874;SDS011;40468;42.128;24.750;2022-12-18T06:48:46;9.25;;;5.25;;
32874;SDS011;40468;42.128;24.750;2022-12-18T06:50:18;8.60;;;4.60;;
32874;SDS011;40468;42.128;24.750;2022-12-18T06:51:52;9.90;;;5.07;;
32874;SDS011;40468;42.128;24.750;2022-12-18T06:53:24;10.30;;;5.45;;
32874;SDS011;40468;42.128;24.750;2022-12-18T06:54:55;9.75;;;5.25;;
32874;SDS011;40468;42.128;24.750;2022-12-18T06:56:26;10.10;;;4.95;;
32874;SDS011;40468;42.128;24.750;2022-12-18T06:57:59;8.65;;;5.20;;
32874;SDS011;40468;42.128;24.750;2022-12-18T06:59:31;9.93;;;5.13;;
32874;SDS011;40468;42.128;24.750;2022-12-18T07:01:04;8.85;;;4.60;;
32874;SDS011;40468;42.128;24.750;2022-12-18T07:02:37;17.95;;;9.75;;
32874;SDS011;40468;42.128;24.750;2022-12-18T07:04:09;14.95;;;7.95;;
32874;SDS011;40468;42.128;24.750;2022-12-18T07:05:41;28.88;;;16.17;;
32874;SDS011;40468;42.128;24.750;2022-12-18T07:07:14;47.33;;;26.77;;
32874;SDS011;40468;42.128;24.750;2022-12-18T07:08:47;27.00;;;13.00;;
32874;SDS011;40468;42.128;24.750;2022-12-18T07:10:19;25.15;;;14.38;;
32874;SDS011;40468;42.128;24.750;2022-12-18T07:11:49;29.33;;;14.85;;
32874;SDS011;40468;42.128;24.750;2022-12-18T07:13:21;13.65;;;6.65;;
32874;SDS011;40468;42.128;24.750;2022-12-18T07:14:52;12.48;;;5.60;;
32874;SDS011;40468;42.128;24.750;2022-12-18T07:16:24;9.02;;;4.97;;
32874;SDS011;40468;42.128;24.750;2022-12-18T07:17:58;9.77;;;5.60;;
32874;SDS011;40468;42.128;24.750;2022-12-18T07:19:30;11.75;;;5.28;;
32874;SDS011;40468;42.128;24.750;2022-12-18T07:21:02;9.05;;;4.65;;
32874;SDS011;40468;42.128;24.750;2022-12-18T07:22:36;151.57;;;73.65;;
32874;SDS011;40468;42.128;24.750;2022-12-18T07:24:08;21.10;;;11.07;;
32874;SDS011;40468;42.128;24.750;2022-12-18T07:25:40;27.95;;;13.88;;
32874;SDS011;40468;42.128;24.750;2022-12-18T07:27:12;22.42;;;11.27;;
32874;SDS011;40468;42.128;24.750;2022-12-18T07:28:44;20.88;;;8.77;;
32874;SDS011;40468;42.128;24.750;2022-12-18T07:30:16;10.98;;;5.57;;
32874;SDS011;40468;42.128;24.750;2022-12-18T07:31:48;9.73;;;5.38;;
32874;SDS011;40468;42.128;24.750;2022-12-18T07:33:19;13.23;;;6.38;;
32874;SDS011;40468;42.128;24.750;2022-12-18T07:34:51;10.18;;;5.32;;
32874;SDS011;40468;42.128;24.750;2022-12-18T07:36:23;10.32;;;5.10;;
32874;SDS011;40468;42.128;24.750;2022-12-18T07:37:56;8.60;;;4.35;;
32874;SDS011;40468;42.128;24.750;2022-12-18T07:39:31;11.70;;;4.63;;
32874;SDS011;40468;42.128;24.750;2022-12-18T07:41:03;9.10;;;4.75;;
32874;SDS011;40468;42.128;24.750;2022-12-18T07:42:36;9.43;;;5.13;;
32874;SDS011;40468;42.128;24.750;2022-12-18T07:44:09;8.30;;;5.03;;
32874;SDS011;40468;42.128;24.750;2022-12-18T07:45:41;10.68;;;4.88;;
32874;SDS011;40468;42.128;24.750;2022-12-18T07:47:13;10.75;;;4.93;;
32874;SDS011;40468;42.128;24.750;2022-12-18T07:48:45;12.60;;;4.85;;
32874;SDS011;40468;42.128;24.750;2022-12-18T07:50:17;10.07;;;5.22;;
32874;SDS011;40468;42.128;24.750;2022-12-18T07:51:49;9.27;;;5.60;;
32874;SDS011;40468;42.128;24.750;2022-12-18T07:53:25;10.10;;;4.47;;
32874;SDS011;40468;42.128;24.750;2022-12-18T07:55:07;8.55;;;4.75;;
32874;SDS011;40468;42.128;24.750;2022-12-18T07:56:39;8.20;;;4.88;;
32874;SDS011;40468;42.128;24.750;2022-12-18T07:58:11;10.68;;;4.38;;
32874;SDS011;40468;42.128;24.750;2022-12-18T07:59:43;8.10;;;4.50;;
32874;SDS011;40468;42.128;24.750;2022-12-18T08:01:15;14.63;;;5.97;;
32874;SDS011;40468;42.128;24.750;2022-12-18T08:02:47;13.18;;;5.30;;
32874;SDS011;40468;42.128;24.750;2022-12-18T08:04:19;13.25;;;5.18;;
32874;SDS011;40468;42.128;24.750;2022-12-18T08:05:51;11.07;;;4.50;;
32874;SDS011;40468;42.128;24.750;2022-12-18T08:07:22;8.40;;;4.32;;
32874;SDS011;40468;42.128;24.750;2022-12-18T08:08:56;12.32;;;4.53;;
32874;SDS011;40468;42.128;24.750;2022-12-18T08:10:28;6.90;;;4.45;;
32874;SDS011;40468;42.128;24.750;2022-12-18T08:11:59;8.80;;;4.75;;
32874;SDS011;40468;42.128;24.750;2022-12-18T08:13:31;8.68;;;5.07;;
32874;SDS011;40468;42.128;24.750;2022-12-18T08:15:03;7.80;;;4.28;;
32874;SDS011;40468;42.128;24.750;2022-12-18T08:16:35;9.68;;;4.93;;
32874;SDS011;40468;42.128;24.750;2022-12-18T08:18:07;9.90;;;4.70;;
32874;SDS011;40468;42.128;24.750;2022-12-18T08:19:39;10.30;;;4.75;;
32874;SDS011;40468;42.128;24.750;2022-12-18T08:21:11;12.40;;;4.75;;
32874;SDS011;40468;42.128;24.750;2022-12-18T08:22:45;11.75;;;4.47;;
32874;SDS011;40468;42.128;24.750;2022-12-18T08:24:18;13.48;;;5.55;;
32874;SDS011;40468;42.128;24.750;2022-12-18T08:25:50;10.63;;;5.07;;
32874;SDS011;40468;42.128;24.750;2022-12-18T08:27:22;9.55;;;4.30;;
32874;SDS011;40468;42.128;24.750;2022-12-18T08:28:54;9.05;;;5.00;;
32874;SDS011;40468;42.128;24.750;2022-12-18T08:30:26;7.97;;;4.47;;
32874;SDS011;40468;42.128;24.750;2022-12-18T08:31:58;8.75;;;5.05;;
32874;SDS011;40468;42.128;24.750;2022-12-18T08:33:30;9.65;;;5.68;;
32874;SDS011;40468;42.128;24.750;2022-12-18T08:35:02;10.55;;;5.45;;
32874;SDS011;40468;42.128;24.750;2022-12-18T08:36:35;10.70;;;5.10;;
32874;SDS011;40468;42.128;24.750;2022-12-18T08:38:06;9.73;;;5.43;;
32874;SDS011;40468;42.128;24.750;2022-12-18T08:39:40;13.13;;;5.88;;
32874;SDS011;40468;42.128;24.750;2022-12-18T08:41:12;10.07;;;6.05;;
32874;SDS011;40468;42.128;24.750;2022-12-18T08:42:46;9.15;;;5.15;;
32874;SDS011;40468;42.128;24.750;2022-12-18T08:44:35;13.13;;;5.35;;
32874;SDS011;40468;42.128;24.750;2022-12-18T08:46:09;13.07;;;5.38;;
32874;SDS011;40468;42.128;24.750;2022-12-18T08:47:41;9.50;;;5.22;;
32874;SDS011;40468;42.128;24.750;2022-12-18T08:49:12;7.93;;;4.35;;
32874;SDS011;40468;42.128;24.750;2022-12-18T08:50:50;11.15;;;5.07;;
32874;SDS011;40468;42.128;24.750;2022-12-18T08:52:25;9.50;;;5.32;;
32874;SDS011;40468;42.128;24.750;2022-12-18T08:53:58;9.85;;;5.20;;
32874;SDS011;40468;42.128;24.750;2022-12-18T08:55:31;11.32;;;5.35;;
32874;SDS011;40468;42.128;24.750;2022-12-18T08:58:35;11.38;;;4.95;;
32874;SDS011;40468;42.128;24.750;2022-12-18T09:00:07;10.77;;;5.10;;
32874;SDS011;40468;42.128;24.750;2022-12-18T09:01:40;9.32;;;4.90;;
32874;SDS011;40468;42.128;24.750;2022-12-18T09:03:12;7.50;;;4.32;;
32874;SDS011;40468;42.128;24.750;2022-12-18T09:04:46;8.45;;;4.63;;
32874;SDS011;40468;42.128;24.750;2022-12-18T09:06:19;9.20;;;4.75;;
32874;SDS011;40468;42.128;24.750;2022-12-18T09:07:52;10.07;;;5.07;;
32874;SDS011;40468;42.128;24.750;2022-12-18T09:09:24;9.20;;;5.25;;
32874;SDS011;40468;42.128;24.750;2022-12-18T09:10:57;8.10;;;4.95;;
32874;SDS011;40468;42.128;24.750;2022-12-18T09:12:29;8.30;;;4.05;;
32874;SDS011;40468;42.128;24.750;2022-12-18T09:14:01;10.57;;;5.05;;
32874;SDS011;40468;42.128;24.750;2022-12-18T09:15:33;9.00;;;5.00;;
32874;SDS011;40468;42.128;24.750;2022-12-18T09:17:04;11.15;;;5.40;;
32874;SDS011;40468;42.128;24.750;2022-12-18T09:18:36;19.42;;;9.82;;
32874;SDS011;40468;42.128;24.750;2022-12-18T09:20:09;12.75;;;5.63;;
32874;SDS011;40468;42.128;24.750;2022-12-18T09:21:41;13.20;;;4.90;;
32874;SDS011;40468;42.128;24.750;2022-12-18T09:23:13;8.90;;;4.53;;